createdAt,value
2019-03-21T00:01:39.553Z,2.83
2019-03-21T00:04:37.224Z,3.00
2019-03-21T00:07:33.442Z,3.35
2019-03-21T00:10:44.940Z,2.90
2019-03-21T00:13:34.845Z,3.37
2019-03-21T00:16:13.940Z,3.17
2019-03-21T00:19:03.758Z,3.77
2019-03-21T00:21:40.422Z,3.72
2019-03-21T00:24:50.355Z,3.47
2019-03-21T00:27:46.140Z,3.67
2019-03-21T00:30:41.577Z,4.05
2019-03-21T00:33:37.276Z,8.28
2019-03-21T00:36:26.737Z,4.12
2019-03-21T00:39:04.181Z,3.65
2019-03-21T00:41:53.181Z,4.15
2019-03-21T00:44:30.092Z,3.80
2019-03-21T00:47:21.043Z,3.62
2019-03-21T00:50:04.655Z,3.87
2019-03-21T00:52:57.200Z,3.83
2019-03-21T00:55:48.262Z,4.03
2019-03-21T00:58:37.818Z,3.62
2019-03-21T01:01:15.592Z,4.08
2019-03-21T01:04:05.561Z,3.62
2019-03-21T01:06:42.501Z,4.03
2019-03-21T01:09:32.779Z,3.77
2019-03-21T01:12:15.968Z,3.67
2019-03-21T01:14:59.892Z,3.77
2019-03-21T01:17:54.925Z,3.25
2019-03-21T01:20:44.163Z,3.50
2019-03-21T01:23:27.376Z,3.65
2019-03-21T01:26:18.257Z,3.33
2019-03-21T01:29:01.589Z,3.20
2019-03-21T01:31:45.426Z,3.08
2019-03-21T01:34:27.860Z,3.00
2019-03-21T01:37:12.922Z,2.83
2019-03-21T01:39:55.909Z,2.67
2019-03-21T01:42:39.568Z,2.95
2019-03-21T01:45:26.455Z,2.80
2019-03-21T01:48:15.909Z,4.58
2019-03-21T01:50:53.012Z,5.00
2019-03-21T01:53:42.818Z,5.67
2019-03-21T01:56:19.786Z,6.62
2019-03-21T01:59:10.835Z,7.08
2019-03-21T02:02:01.347Z,6.60
2019-03-21T02:04:58.469Z,7.17
2019-03-21T02:07:53.806Z,7.25
2019-03-21T02:10:37.716Z,7.45
2019-03-21T02:13:20.688Z,7.42
2019-03-21T02:16:04.443Z,6.92
2019-03-21T02:18:46.699Z,7.08
2019-03-21T02:21:29.756Z,6.62
2019-03-21T02:24:13.737Z,6.53
2019-03-21T02:27:02.975Z,6.78
2019-03-21T02:29:52.026Z,7.12
2019-03-21T02:32:34.947Z,6.17
2019-03-21T02:35:25.002Z,7.25
2019-03-21T02:38:01.586Z,6.50
2019-03-21T02:40:52.058Z,6.28
2019-03-21T02:43:35.032Z,6.35
2019-03-21T02:46:30.154Z,6.33
2019-03-21T02:49:19.444Z,5.67
2019-03-21T02:52:02.578Z,4.92
2019-03-21T02:54:58.874Z,4.65
2019-03-21T02:57:49.541Z,4.70
2019-03-21T03:00:38.369Z,4.33
2019-03-21T03:03:27.138Z,4.12
2019-03-21T03:06:04.315Z,4.90
2019-03-21T03:08:54.977Z,5.08
2019-03-21T03:11:31.921Z,4.20
2019-03-21T03:14:21.836Z,4.40
2019-03-21T03:16:58.202Z,5.03
2019-03-21T03:19:49.243Z,7.60
2019-03-21T03:22:32.533Z,7.55
2019-03-21T03:25:27.204Z,7.08
2019-03-21T03:28:18.861Z,7.33
2019-03-21T03:31:09.376Z,8.23
2019-03-21T03:33:46.395Z,7.92
2019-03-21T03:36:37.818Z,8.10
2019-03-21T03:39:22.151Z,8.03
2019-03-21T03:42:13.381Z,7.90
2019-03-21T03:44:49.869Z,8.00
2019-03-21T03:47:40.200Z,8.05
2019-03-21T03:50:18.150Z,8.10
2019-03-21T03:53:08.207Z,8.23
2019-03-21T03:55:51.432Z,8.75
2019-03-21T03:58:47.510Z,8.13
2019-03-21T04:01:30.384Z,8.15
2019-03-21T04:04:13.694Z,9.03
2019-03-21T04:06:56.741Z,9.70
2019-03-21T04:09:40.900Z,9.80
2019-03-21T04:12:23.944Z,9.40
2019-03-21T04:15:07.293Z,9.85
2019-03-21T04:17:51.350Z,9.00
2019-03-21T04:20:44.438Z,9.45
2019-03-21T04:23:41.063Z,9.60
2019-03-21T04:26:36.424Z,9.88
2019-03-21T04:29:20.254Z,9.28
2019-03-21T04:32:15.596Z,10.28
2019-03-21T04:35:11.160Z,9.70
2019-03-21T04:38:02.113Z,9.85
2019-03-21T04:40:45.601Z,9.90
2019-03-21T04:43:35.604Z,9.65
2019-03-21T04:46:19.084Z,9.43
2019-03-21T04:49:08.803Z,10.18
2019-03-21T04:51:45.496Z,10.90
2019-03-21T04:54:36.281Z,9.43
2019-03-21T04:57:13.216Z,9.95
2019-03-21T05:00:04.262Z,9.93
2019-03-21T05:02:41.608Z,10.13
2019-03-21T05:05:32.168Z,10.10
2019-03-21T05:08:08.308Z,10.75
2019-03-21T05:10:58.957Z,10.25
2019-03-21T05:13:36.034Z,9.63
2019-03-21T05:16:25.867Z,10.80
2019-03-21T05:19:05.812Z,10.13
2019-03-21T05:21:56.316Z,10.10
2019-03-21T05:24:33.368Z,9.85
2019-03-21T05:27:24.048Z,9.78
2019-03-21T05:30:09.310Z,9.85
2019-03-21T05:33:04.502Z,9.78
2019-03-21T05:36:01.070Z,9.88
2019-03-21T05:38:51.507Z,10.45
2019-03-21T05:41:28.134Z,10.08
2019-03-21T05:44:30.931Z,10.20
2019-03-21T05:47:13.791Z,10.75
2019-03-21T05:50:09.281Z,9.55
2019-03-21T05:52:58.718Z,10.85
2019-03-21T05:55:35.257Z,10.28
2019-03-21T05:58:25.921Z,10.45
2019-03-21T06:01:08.473Z,11.03
2019-03-21T06:03:59.863Z,10.88
2019-03-21T06:06:58.452Z,10.98
2019-03-21T06:09:48.800Z,11.40
2019-03-21T06:12:25.955Z,11.70
2019-03-21T06:15:19.395Z,11.65
2019-03-21T06:18:18.391Z,13.05
2019-03-21T06:21:19.744Z,11.25
2019-03-21T06:24:05.512Z,11.00
2019-03-21T06:26:58.465Z,11.45
2019-03-21T06:29:35.013Z,10.98
2019-03-21T06:32:25.296Z,11.45
2019-03-21T06:35:09.224Z,11.80
2019-03-21T06:37:59.106Z,11.38
2019-03-21T06:40:36.063Z,12.18
2019-03-21T06:43:26.626Z,12.47
2019-03-21T06:46:03.025Z,11.68
2019-03-21T06:48:53.906Z,11.95
2019-03-21T06:51:30.037Z,11.50
2019-03-21T06:56:55.197Z,11.33
2019-03-21T06:59:45.315Z,11.65
2019-03-21T07:02:28.790Z,11.70
2019-03-21T07:05:26.651Z,11.53
2019-03-21T07:08:15.111Z,11.12
2019-03-21T07:10:52.032Z,11.48
2019-03-21T07:13:41.120Z,11.93
2019-03-21T07:16:17.415Z,11.53
2019-03-21T07:19:06.606Z,12.28
2019-03-21T07:21:43.565Z,12.18
2019-03-21T07:24:33.583Z,12.80
2019-03-21T07:27:12.106Z,12.68
2019-03-21T07:30:02.191Z,13.22
2019-03-21T07:32:44.946Z,12.30
2019-03-21T07:35:37.728Z,12.35
2019-03-21T07:38:14.223Z,12.10
2019-03-21T07:41:03.546Z,12.78
2019-03-21T07:43:39.618Z,11.95
2019-03-21T07:46:32.865Z,12.20
2019-03-21T07:49:10.363Z,11.15
2019-03-21T07:51:59.857Z,11.43
2019-03-21T07:54:35.938Z,11.75
2019-03-21T07:57:26.622Z,11.57
2019-03-21T08:00:09.404Z,10.40
2019-03-21T08:03:04.563Z,10.18
2019-03-21T08:05:59.718Z,8.15
2019-03-21T08:08:48.939Z,6.97
2019-03-21T08:11:25.596Z,6.87
2019-03-21T08:14:16.670Z,6.55
2019-03-21T08:16:59.909Z,6.90
2019-03-21T08:19:55.242Z,6.47
2019-03-21T08:22:44.350Z,7.42
2019-03-21T08:25:27.019Z,6.47
2019-03-21T08:28:16.491Z,7.60
2019-03-21T08:31:13.919Z,7.33
2019-03-21T08:34:04.166Z,7.17
2019-03-21T08:36:46.473Z,7.05
2019-03-21T08:39:29.592Z,6.55
2019-03-21T08:42:12.032Z,7.05
2019-03-21T08:44:55.870Z,9.65
2019-03-21T08:47:39.307Z,98.40
2019-03-21T08:50:22.784Z,8.25
2019-03-21T08:53:05.815Z,6.20
2019-03-21T08:55:49.450Z,10.15
2019-03-21T08:58:38.991Z,6.25
2019-03-21T09:01:15.603Z,6.17
2019-03-21T09:04:04.768Z,7.22
2019-03-21T09:06:40.954Z,6.30
2019-03-21T09:09:30.649Z,12.00
2019-03-21T09:12:13.822Z,5.28
2019-03-21T09:14:56.567Z,5.75
2019-03-21T09:17:40.399Z,5.25
2019-03-21T09:20:23.021Z,5.70
2019-03-21T09:23:06.530Z,5.22
2019-03-21T09:25:51.204Z,4.75
2019-03-21T09:28:34.555Z,4.87
2019-03-21T09:31:17.324Z,3.62
2019-03-21T09:34:00.905Z,3.92
2019-03-21T09:36:50.255Z,4.30
2019-03-21T09:39:33.308Z,4.17
2019-03-21T09:42:22.493Z,3.90
2019-03-21T09:45:04.839Z,4.67
2019-03-21T09:47:54.044Z,3.87
2019-03-21T09:50:38.094Z,4.35
2019-03-21T09:53:28.504Z,4.80
2019-03-21T09:56:04.530Z,4.15
2019-03-21T09:58:54.289Z,4.35
2019-03-21T10:01:37.384Z,5.00
2019-03-21T10:04:19.668Z,4.95
2019-03-21T10:07:03.483Z,5.10
2019-03-21T10:09:47.142Z,4.90
2019-03-21T10:12:30.670Z,4.08
2019-03-21T10:15:13.335Z,5.03
2019-03-21T10:17:56.819Z,4.80
2019-03-21T10:20:39.117Z,4.70
2019-03-21T10:23:23.218Z,4.80
2019-03-21T10:26:12.536Z,4.78
2019-03-21T10:28:55.914Z,4.58
2019-03-21T10:31:45.321Z,4.37
2019-03-21T10:34:34.619Z,4.65
2019-03-21T10:37:30.143Z,4.58
2019-03-21T10:40:27.249Z,4.60
2019-03-21T10:43:10.764Z,4.58
2019-03-21T10:45:59.989Z,4.65
2019-03-21T10:48:43.883Z,4.45
2019-03-21T10:51:33.249Z,4.80
2019-03-21T10:54:10.217Z,5.20
2019-03-21T10:56:59.593Z,4.20
2019-03-21T10:59:35.693Z,4.90
2019-03-21T11:02:25.165Z,4.62
2019-03-21T11:05:02.264Z,5.35
2019-03-21T11:07:51.825Z,5.17
2019-03-21T11:10:48.722Z,4.87
2019-03-21T11:13:44.019Z,5.15
2019-03-21T11:16:38.899Z,4.95
2019-03-21T11:19:34.462Z,4.92
2019-03-21T11:22:32.257Z,4.92
2019-03-21T11:25:22.419Z,4.85
2019-03-21T11:27:58.907Z,5.05
2019-03-21T11:30:49.162Z,4.25
2019-03-21T11:33:25.973Z,4.22
2019-03-21T11:36:21.774Z,4.72
2019-03-21T11:39:14.902Z,5.28
2019-03-21T11:41:51.783Z,4.70
2019-03-21T11:44:41.841Z,4.97
2019-03-21T11:47:19.003Z,6.08
2019-03-21T11:50:09.354Z,5.83
2019-03-21T11:52:46.070Z,5.35
2019-03-21T11:55:36.069Z,6.47
2019-03-21T11:58:13.071Z,5.30
2019-03-21T12:01:02.768Z,5.92
2019-03-21T12:03:45.976Z,5.20
2019-03-21T12:06:40.742Z,5.83
2019-03-21T12:09:31.671Z,5.62
2019-03-21T12:12:08.333Z,4.87
2019-03-21T12:14:58.689Z,5.40
2019-03-21T12:17:47.871Z,5.45
2019-03-21T12:20:38.371Z,5.58
2019-03-21T12:23:21.838Z,5.33
2019-03-21T12:26:10.900Z,5.70
2019-03-21T12:28:54.188Z,5.60
2019-03-21T12:31:49.489Z,5.47
2019-03-21T12:34:39.231Z,6.10
2019-03-21T12:37:16.015Z,5.42
2019-03-21T12:40:06.354Z,5.10
2019-03-21T12:42:49.978Z,5.62
2019-03-21T12:45:45.651Z,5.60
2019-03-21T12:48:35.530Z,5.67
2019-03-21T12:51:12.532Z,5.65
2019-03-21T12:54:03.151Z,5.30
2019-03-21T12:56:39.432Z,6.30
2019-03-21T12:59:28.903Z,6.10
2019-03-21T13:02:05.689Z,5.75
2019-03-21T13:04:55.459Z,5.97
2019-03-21T13:07:32.372Z,5.33
2019-03-21T13:10:22.370Z,5.53
2019-03-21T13:13:12.870Z,5.65
2019-03-21T13:15:55.836Z,5.80
2019-03-21T13:18:38.588Z,6.22
2019-03-21T13:21:25.827Z,5.75
2019-03-21T13:24:19.185Z,6.40
2019-03-21T13:26:54.253Z,6.00
2019-03-21T13:29:43.906Z,5.92
2019-03-21T13:32:33.789Z,5.65
2019-03-21T13:35:11.878Z,5.97
2019-03-21T13:38:07.549Z,6.15
2019-03-21T13:40:56.354Z,6.20
2019-03-21T13:43:32.987Z,6.85
2019-03-21T13:46:22.159Z,6.20
2019-03-21T13:48:58.969Z,6.50
2019-03-21T13:51:49.081Z,6.35
2019-03-21T13:54:25.888Z,6.55
2019-03-21T13:57:15.624Z,6.65
2019-03-21T13:59:52.563Z,6.90
2019-03-21T14:02:43.088Z,6.17
2019-03-21T14:05:19.842Z,6.45
2019-03-21T14:08:09.455Z,6.30
2019-03-21T14:10:46.221Z,6.75
2019-03-21T14:13:36.742Z,6.47
2019-03-21T14:16:12.877Z,7.05
2019-03-21T14:19:03.693Z,7.53
2019-03-21T14:21:49.384Z,7.25
2019-03-21T14:24:45.457Z,6.35
2019-03-21T14:27:41.375Z,6.78
2019-03-21T14:30:38.212Z,6.55
2019-03-21T14:33:28.752Z,6.87
2019-03-21T14:36:05.145Z,7.08
2019-03-21T14:39:01.293Z,7.37
2019-03-21T14:41:51.301Z,7.15
2019-03-21T14:44:27.283Z,6.97
2019-03-21T14:47:17.679Z,6.45
2019-03-21T14:49:53.755Z,6.80
2019-03-21T14:52:43.672Z,6.95
2019-03-21T14:55:20.870Z,7.10
2019-03-21T14:58:11.365Z,7.95
2019-03-21T15:00:54.583Z,6.83
2019-03-21T15:03:51.760Z,7.28
2019-03-21T15:06:46.997Z,6.62
2019-03-21T15:09:42.201Z,6.72
2019-03-21T15:12:37.578Z,7.28
2019-03-21T15:15:28.113Z,7.45
2019-03-21T15:18:04.939Z,7.42
2019-03-21T15:20:57.407Z,7.87
2019-03-21T15:23:41.196Z,7.72
2019-03-21T15:26:37.783Z,7.85
2019-03-21T15:29:37.630Z,8.45
2019-03-21T15:32:36.159Z,9.18
2019-03-21T15:35:33.020Z,7.97
2019-03-21T15:38:17.624Z,7.62
2019-03-21T15:41:07.983Z,8.68
2019-03-21T15:43:44.857Z,7.80
2019-03-21T15:46:34.306Z,7.90
2019-03-21T15:49:12.419Z,8.20
2019-03-21T15:52:02.257Z,8.50
2019-03-21T15:54:39.929Z,8.03
2019-03-21T15:57:31.858Z,8.65
2019-03-21T16:00:10.739Z,9.28
2019-03-21T16:03:12.373Z,8.73
2019-03-21T16:05:50.323Z,7.97
2019-03-21T16:08:41.658Z,7.85
2019-03-21T16:11:19.425Z,7.42
2019-03-21T16:14:09.669Z,7.97
2019-03-21T16:17:04.413Z,8.18
2019-03-21T16:20:00.382Z,9.10
2019-03-21T16:22:57.800Z,8.45
2019-03-21T16:25:48.529Z,9.00
2019-03-21T16:28:40.162Z,8.37
2019-03-21T16:31:24.355Z,7.85
2019-03-21T16:34:07.659Z,8.73
2019-03-21T16:36:52.501Z,8.05
2019-03-21T16:39:34.968Z,7.83
2019-03-21T16:42:19.607Z,8.18
2019-03-21T16:45:10.326Z,7.87
2019-03-21T16:47:47.267Z,7.50
2019-03-21T16:50:36.973Z,7.67
2019-03-21T16:53:21.564Z,8.23
2019-03-21T16:56:05.287Z,8.85
2019-03-21T16:58:48.656Z,8.80
2019-03-21T17:01:39.388Z,8.40
2019-03-21T17:04:16.085Z,7.33
2019-03-21T17:07:06.228Z,8.23
2019-03-21T17:09:43.132Z,8.65
2019-03-21T17:12:32.980Z,9.70
2019-03-21T17:15:28.633Z,10.15
2019-03-21T17:18:25.109Z,11.22
2019-03-21T17:21:21.146Z,11.03
2019-03-21T17:24:29.251Z,11.15
2019-03-21T17:27:16.390Z,11.45
2019-03-21T17:29:59.656Z,12.20
2019-03-21T17:32:54.980Z,12.37
2019-03-21T17:35:51.761Z,11.93
2019-03-21T17:38:48.050Z,11.22
2019-03-21T17:41:44.303Z,11.93
2019-03-21T17:44:43.343Z,11.85
2019-03-21T17:47:41.682Z,11.88
2019-03-21T17:50:30.936Z,12.15
2019-03-21T17:53:15.280Z,12.03
2019-03-21T17:56:11.969Z,12.03
2019-03-21T17:59:09.365Z,12.65
2019-03-21T18:01:59.282Z,13.22
2019-03-21T18:04:36.879Z,14.50
2019-03-21T18:07:27.004Z,14.20
2019-03-21T18:10:05.224Z,15.32
2019-03-21T18:12:57.281Z,19.85
2019-03-21T18:15:34.448Z,29.42
2019-03-21T18:18:25.401Z,30.62
2019-03-21T18:21:04.936Z,34.00
2019-03-21T18:23:56.366Z,26.33
2019-03-21T18:26:34.499Z,27.10
2019-03-21T18:29:24.783Z,18.27
2019-03-21T18:32:02.646Z,18.23
2019-03-21T18:34:57.955Z,18.75
2019-03-21T18:37:41.699Z,17.42
2019-03-21T18:43:40.310Z,16.70
2019-03-21T18:46:29.978Z,17.25
2019-03-21T18:49:09.093Z,17.00
2019-03-21T18:52:00.979Z,16.20
2019-03-21T18:54:38.342Z,16.15
2019-03-21T18:57:28.223Z,14.55
2019-03-21T19:00:06.419Z,12.85
2019-03-21T19:02:56.823Z,12.95
2019-03-21T19:05:40.967Z,13.50
2019-03-21T19:08:31.019Z,13.13
2019-03-21T19:11:14.501Z,14.28
2019-03-21T19:13:59.398Z,14.68
2019-03-21T19:16:49.906Z,14.90
2019-03-21T19:19:34.603Z,14.60
2019-03-21T19:22:17.327Z,15.05
2019-03-21T19:25:00.339Z,13.53
2019-03-21T19:27:45.774Z,14.05
2019-03-21T19:30:29.133Z,13.78
2019-03-21T19:33:15.156Z,14.05
2019-03-21T19:35:59.347Z,14.83
2019-03-21T19:38:42.111Z,23.32
2019-03-21T19:41:26.914Z,29.63
2019-03-21T19:44:24.938Z,26.50
2019-03-21T19:47:34.917Z,25.82
2019-03-21T19:50:21.004Z,25.82
2019-03-21T19:53:11.669Z,25.12
2019-03-21T19:55:48.548Z,21.70
2019-03-21T19:58:41.621Z,21.00
2019-03-21T20:01:33.293Z,17.32
2019-03-21T20:04:10.714Z,18.80
2019-03-21T20:07:01.338Z,18.75
2019-03-21T20:09:38.592Z,19.37
2019-03-21T20:12:28.352Z,21.17
2019-03-21T20:15:24.270Z,19.25
2019-03-21T20:18:25.777Z,18.30
2019-03-21T20:21:18.090Z,19.02
2019-03-21T20:24:10.099Z,18.32
2019-03-21T20:26:53.099Z,18.85
2019-03-21T20:29:36.036Z,19.85
2019-03-21T20:32:25.887Z,20.08
2019-03-21T20:35:03.759Z,20.43
2019-03-21T20:37:54.360Z,21.15
2019-03-21T20:40:39.176Z,21.57
2019-03-21T20:43:29.116Z,20.72
2019-03-21T20:46:26.706Z,20.15
2019-03-21T20:49:15.853Z,19.55
2019-03-21T20:51:59.296Z,20.08
2019-03-21T20:54:41.803Z,19.23
2019-03-21T20:57:32.621Z,19.48
2019-03-21T21:00:13.087Z,20.23
2019-03-21T21:03:04.615Z,19.27
2019-03-21T21:12:40.932Z,19.87
2019-03-21T21:15:32.342Z,25.80
2019-03-21T21:18:43.031Z,21.15
2019-03-21T21:21:35.785Z,20.23
2019-03-21T21:24:13.693Z,20.65
2019-03-21T21:27:04.925Z,19.40
2019-03-21T21:29:43.016Z,20.17
2019-03-21T21:32:33.776Z,19.75
2019-03-21T21:35:17.078Z,19.73
2019-03-21T21:38:14.804Z,21.05
2019-03-21T21:41:01.570Z,19.73
2019-03-21T21:43:57.263Z,20.72
2019-03-21T21:46:58.026Z,19.35
2019-03-21T21:52:55.126Z,19.27
2019-03-21T21:59:31.061Z,19.35
2019-03-21T22:02:35.332Z,18.70
2019-03-21T22:05:32.697Z,17.98
2019-03-21T22:08:22.600Z,18.30
2019-03-21T22:11:05.014Z,18.57
2019-03-21T22:13:59.787Z,18.90
2019-03-21T22:16:57.877Z,17.80
2019-03-21T23:04:32.379Z,17.95
2019-03-21T23:07:21.965Z,19.55
2019-03-21T23:16:27.078Z,18.48
2019-03-21T23:19:18.838Z,19.52
2019-03-21T23:22:15.772Z,17.32
2019-03-21T23:28:20.922Z,19.05
2019-03-21T23:31:11.675Z,18.55
2019-03-21T23:33:50.367Z,17.70
2019-03-21T23:36:54.103Z,18.23
2019-03-21T23:39:50.208Z,17.37
2019-03-21T23:42:49.249Z,16.48
2019-03-21T23:45:30.254Z,16.95
2019-03-21T23:48:20.779Z,17.48
2019-03-21T23:51:04.541Z,17.07
2019-03-21T23:54:02.997Z,17.05
2019-03-21T23:57:04.711Z,16.27
2019-03-21T23:59:42.306Z,16.32
